WetterOnline ( https://www.wetteronline.at )

Wetter aktuell Potsdam

Aktuelles Wetter: Potsdam (100m)

6-stündlich | Neueste Meldungen
Ortszeit Temperatur Wetter
Di, 25.02. 7:00 7.5° C wolkig
Di, 25.02. 1:00 7.3° C leichter Regen
Mo, 24.02. 19:00 4.7° C Sprühregen
Mo, 24.02. 13:00 7.1° C bewölkt
Mo, 24.02. 7:00 3.2° C bewölkt
Mo, 24.02. 1:00 2.8° C fast wolkenlos
So, 23.02. 19:00 6.4° C bedeckt
So, 23.02. 13:00 5.8° C leichter Regen
Ortszeit Temperatur Wetter
Di, 25.02. 10:30 8.4° C bedeckt
Di, 25.02. 10:20 8.4° C leichter Regen
Di, 25.02. 10:10 8.5° C Sprühregen
Di, 25.02. 10:00 8.5° C bewölkt
Di, 25.02. 9:50 8.5° C bedeckt
Di, 25.02. 9:40 8.5° C bewölkt
Di, 25.02. 9:30 8.4° C wolkig
Di, 25.02. 9:00 8.1° C wolkig
Ortszeit Relative Feuchte Sichtweite
Di, 25.02. 7:00 91% 35 km
Di, 25.02. 1:00 96% 26 km
Mo, 24.02. 19:00 75% 30 km
Mo, 24.02. 13:00 71% 35 km
Mo, 24.02. 7:00 85% 30 km
Mo, 24.02. 1:00 85% 45 km
So, 23.02. 19:00 96% 40 km
So, 23.02. 13:00 96% 10 km
Ortszeit Relative Feuchte Sichtweite
Di, 25.02. 10:30 84% 25 km
Di, 25.02. 10:20 84% -
Di, 25.02. 10:10 83% -
Di, 25.02. 10:00 83% 50 km
Di, 25.02. 9:50 83% -
Di, 25.02. 9:40 84% -
Di, 25.02. 9:30 86% 50 km
Di, 25.02. 9:00 85% 50 km
Ortszeit Niederschlagsmenge Niederschlagsart
Di, 25.02. 7:00 5 l/m2 in 12 Std. Regen
Di, 25.02. 1:00 3 l/m2 in 6 Std. Regen
Mo, 24.02. 19:00 0.1 l/m2 in 12 Std. Regen
Mo, 24.02. 13:00 0.1 l/m2 in 6 Std. Regen
Mo, 24.02. 7:00 0.4 l/m2 in 12 Std. -
Mo, 24.02. 1:00 0.4 l/m2 in 6 Std. Regen
So, 23.02. 19:00 18 l/m2 in 12 Std. Regen
So, 23.02. 13:00 5 l/m2 in 6 Std. Regen
Ortszeit Niederschlagsmenge Niederschlagsart
Di, 25.02. 10:30 0.1 l/m2 in 1 Std. -
Di, 25.02. 10:20 keine Meldung -
Di, 25.02. 10:10 keine Meldung -
Di, 25.02. 10:00 0.0 l/m2 in 1 Std. -
Di, 25.02. 9:50 keine Meldung -
Di, 25.02. 9:40 keine Meldung -
Di, 25.02. 9:30 0.0 l/m2 in 1 Std. -
Di, 25.02. 9:00 0.0 l/m2 in 1 Std. -
Ortszeit Stärke Spitze Richtung
km/h Bft. km/h Grad Sektor
Di, 25.02. 7:00 28 4 44 240° SW
Di, 25.02. 1:00 22 4 48 220° SW
Mo, 24.02. 19:00 20 4 39 180° S
Mo, 24.02. 13:00 18 3 47 240° SW
Mo, 24.02. 7:00 25 4 54 250° W
Mo, 24.02. 1:00 30 5 69 280° W
So, 23.02. 19:00 22 4 37 300° NW
So, 23.02. 13:00 14 3 54 180° S
Ortszeit Stärke Spitze Richtung
km/h Bft. km/h Grad Sektor
Di, 25.02. 10:30 9 2 19 240° SW
Di, 25.02. 10:20 9 2 - 240° SW
Di, 25.02. 10:10 7 2 - 250° W
Di, 25.02. 10:00 11 2 25 280° W
Di, 25.02. 9:50 11 2 - 280° W
Di, 25.02. 9:40 11 2 - 270° W
Di, 25.02. 9:30 14 3 22 280° W
Di, 25.02. 9:00 14 3 25 280° W
Ortszeit Untergrenze Bedeckung Gattung
total tief tief mittel hoch
Di, 25.02. 7:00 690 m 7/8 3/8 Cu As Cs
Di, 25.02. 1:00 720 m 8/8 7/8 - - -
Mo, 24.02. 19:00 690 m 8/8 8/8 - - -
Mo, 24.02. 13:00 630 m 7/8 7/8 Sc - -
Mo, 24.02. 7:00 540 m 7/8 7/8 Sc - -
Mo, 24.02. 1:00 570 m 1/8 1/8 - - -
So, 23.02. 19:00 210 m 8/8 8/8 - - -
So, 23.02. 13:00 120 m 8/8 8/8 Sc - -
Ortszeit Bedeckungsgrad in Achtel und Wolkenuntergrenze
Di, 25.02. 10:30 2(630m) 7(1200m) 8(1470m)
Di, 25.02. 10:20 2(630m) 7(1200m) 8(1470m)
Di, 25.02. 10:10 1(660m) 7(1230m) 8(1500m)
Di, 25.02. 10:00 4(690m) 7(1260m)
Di, 25.02. 9:50 2(690m) 7(1230m) 8(1500m)
Di, 25.02. 9:40 2(660m) 7(1500m) 7(1500m)
Di, 25.02. 9:30 3(630m) 5(1380m) 7(1800m)
Di, 25.02. 9:00 2(540m) 4(1290m) 7(1230m)
Ortszeit Luftdruck NN (hPa) Tendenz (hPa in 3 Std.)
Di, 25.02. 7:00 998 - 0,8
Di, 25.02. 1:00 1000 - 2,5
Mo, 24.02. 19:00 1007 - 5,7
Mo, 24.02. 13:00 1018 - 2,0
Mo, 24.02. 7:00 1019 + 1,7
Mo, 24.02. 1:00 1015 + 4,9
So, 23.02. 19:00 1002 + 3,1
So, 23.02. 13:00 1006 - 6,3
Ortszeit Luftdruck NN (hPa) Tendenz (hPa in 3 Std.)
Di, 25.02. 10:30 997 - 0,3
Di, 25.02. 10:20 997 keine Meldung
Di, 25.02. 10:10 997 keine Meldung
Di, 25.02. 10:00 998 - 0,2
Di, 25.02. 9:50 998 keine Meldung
Di, 25.02. 9:40 998 keine Meldung
Di, 25.02. 9:30 998 + 0,3
Di, 25.02. 9:00 998 + 0,3
Ortszeit Schneehöhe (cm)
Di, 25.02. 7:00 0
Di, 25.02. 1:00 0
Mo, 24.02. 19:00 0
Mo, 24.02. 13:00 0
Mo, 24.02. 7:00 0
Mo, 24.02. 1:00 0
So, 23.02. 19:00 0
So, 23.02. 13:00 0
Ortszeit Schneehöhe (cm)
Di, 25.02. 10:30 0
Di, 25.02. 10:20 0
Di, 25.02. 10:10 0
Di, 25.02. 10:00 0
Di, 25.02. 9:50 0
Di, 25.02. 9:40 0
Di, 25.02. 9:30 0
Di, 25.02. 9:00 0
Link zu dieser Seite / Seite empfehlen

Das Wetter in ...